sensor_id;sensor_type;location;lat;lon;timestamp;temperature;humidity
17843;DHT22;69286;48.222;16.332;2024-02-21T00:02:23;8.80;99.90
17843;DHT22;69286;48.222;16.332;2024-02-21T00:04:50;8.80;99.90
17843;DHT22;69286;48.222;16.332;2024-02-21T00:07:17;8.80;99.90
17843;DHT22;69286;48.222;16.332;2024-02-21T00:09:44;8.80;99.90
17843;DHT22;69286;48.222;16.332;2024-02-21T00:12:11;8.70;99.90
17843;DHT22;69286;48.222;16.332;2024-02-21T00:14:39;8.70;99.90
17843;DHT22;69286;48.222;16.332;2024-02-21T00:17:07;8.70;99.90
17843;DHT22;69286;48.222;16.332;2024-02-21T00:19:36;8.70;99.90
17843;DHT22;69286;48.222;16.332;2024-02-21T00:22:03;8.70;99.90
17843;DHT22;69286;48.222;16.332;2024-02-21T00:24:30;8.70;99.90
17843;DHT22;69286;48.222;16.332;2024-02-21T00:26:57;8.70;99.90
17843;DHT22;69286;48.222;16.332;2024-02-21T00:29:24;8.70;99.90
17843;DHT22;69286;48.222;16.332;2024-02-21T00:31:51;8.60;99.90
17843;DHT22;69286;48.222;16.332;2024-02-21T00:34:18;8.70;99.90
17843;DHT22;69286;48.222;16.332;2024-02-21T00:36:46;8.60;99.90
17843;DHT22;69286;48.222;16.332;2024-02-21T00:39:13;8.70;99.90
17843;DHT22;69286;48.222;16.332;2024-02-21T00:41:40;8.70;99.90
17843;DHT22;69286;48.222;16.332;2024-02-21T00:44:07;8.60;99.90
17843;DHT22;69286;48.222;16.332;2024-02-21T00:46:35;8.70;99.90
17843;DHT22;69286;48.222;16.332;2024-02-21T00:49:04;8.60;99.90
17843;DHT22;69286;48.222;16.332;2024-02-21T00:51:31;8.60;99.90
17843;DHT22;69286;48.222;16.332;2024-02-21T00:53:59;8.60;99.90
17843;DHT22;69286;48.222;16.332;2024-02-21T00:56:27;8.60;99.90
17843;DHT22;69286;48.222;16.332;2024-02-21T00:58:55;8.60;99.90
17843;DHT22;69286;48.222;16.332;2024-02-21T01:01:23;8.60;99.90
17843;DHT22;69286;48.222;16.332;2024-02-21T01:03:50;8.60;99.90
17843;DHT22;69286;48.222;16.332;2024-02-21T01:06:18;8.60;99.90
17843;DHT22;69286;48.222;16.332;2024-02-21T01:08:46;8.60;99.90
17843;DHT22;69286;48.222;16.332;2024-02-21T01:11:14;8.60;99.90
17843;DHT22;69286;48.222;16.332;2024-02-21T01:13:41;8.60;99.90
17843;DHT22;69286;48.222;16.332;2024-02-21T01:16:08;8.60;99.90
17843;DHT22;69286;48.222;16.332;2024-02-21T01:18:37;8.60;99.90
17843;DHT22;69286;48.222;16.332;2024-02-21T01:21:05;8.60;99.90
17843;DHT22;69286;48.222;16.332;2024-02-21T01:23:32;8.60;99.90
17843;DHT22;69286;48.222;16.332;2024-02-21T01:25:59;8.60;99.90
17843;DHT22;69286;48.222;16.332;2024-02-21T01:28:27;8.60;99.90
17843;DHT22;69286;48.222;16.332;2024-02-21T01:30:54;8.60;99.90
17843;DHT22;69286;48.222;16.332;2024-02-21T01:33:21;8.60;99.90
17843;DHT22;69286;48.222;16.332;2024-02-21T01:35:48;8.60;99.90
17843;DHT22;69286;48.222;16.332;2024-02-21T01:38:15;8.60;99.90
17843;DHT22;69286;48.222;16.332;2024-02-21T01:40:42;8.60;99.90
17843;DHT22;69286;48.222;16.332;2024-02-21T01:43:16;8.60;99.90
17843;DHT22;69286;48.222;16.332;2024-02-21T01:45:48;8.60;99.90
17843;DHT22;69286;48.222;16.332;2024-02-21T01:48:17;8.60;99.90
17843;DHT22;69286;48.222;16.332;2024-02-21T01:50:44;8.60;99.90
17843;DHT22;69286;48.222;16.332;2024-02-21T01:53:12;8.60;99.90
17843;DHT22;69286;48.222;16.332;2024-02-21T01:55:44;8.60;99.90
17843;DHT22;69286;48.222;16.332;2024-02-21T01:58:12;8.50;99.90
17843;DHT22;69286;48.222;16.332;2024-02-21T02:00:41;8.50;99.90
17843;DHT22;69286;48.222;16.332;2024-02-21T02:03:11;8.50;99.90
17843;DHT22;69286;48.222;16.332;2024-02-21T02:05:43;8.50;99.90
17843;DHT22;69286;48.222;16.332;2024-02-21T02:08:10;8.50;99.90
17843;DHT22;69286;48.222;16.332;2024-02-21T02:10:37;8.50;99.90
17843;DHT22;69286;48.222;16.332;2024-02-21T02:13:05;8.50;99.90
17843;DHT22;69286;48.222;16.332;2024-02-21T02:15:38;8.50;99.90
17843;DHT22;69286;48.222;16.332;2024-02-21T02:18:05;8.50;99.90
17843;DHT22;69286;48.222;16.332;2024-02-21T02:20:33;8.50;99.90
17843;DHT22;69286;48.222;16.332;2024-02-21T02:23:03;8.50;99.90
17843;DHT22;69286;48.222;16.332;2024-02-21T02:25:34;8.50;99.90
17843;DHT22;69286;48.222;16.332;2024-02-21T02:28:01;8.50;99.90
17843;DHT22;69286;48.222;16.332;2024-02-21T02:30:28;8.50;99.90
17843;DHT22;69286;48.222;16.332;2024-02-21T02:32:55;8.50;99.90
17843;DHT22;69286;48.222;16.332;2024-02-21T02:35:22;8.50;99.90
17843;DHT22;69286;48.222;16.332;2024-02-21T02:37:49;8.50;99.90
17843;DHT22;69286;48.222;16.332;2024-02-21T02:40:16;8.50;99.90
17843;DHT22;69286;48.222;16.332;2024-02-21T02:42:45;8.50;99.90
17843;DHT22;69286;48.222;16.332;2024-02-21T02:45:13;8.50;99.90
17843;DHT22;69286;48.222;16.332;2024-02-21T02:47:40;8.50;99.90
17843;DHT22;69286;48.222;16.332;2024-02-21T02:50:08;8.50;99.90
17843;DHT22;69286;48.222;16.332;2024-02-21T02:52:35;8.50;99.90
17843;DHT22;69286;48.222;16.332;2024-02-21T02:55:02;8.50;99.90
17843;DHT22;69286;48.222;16.332;2024-02-21T02:57:29;8.50;99.90
17843;DHT22;69286;48.222;16.332;2024-02-21T02:59:57;8.40;99.90
17843;DHT22;69286;48.222;16.332;2024-02-21T03:02:24;8.40;99.90
17843;DHT22;69286;48.222;16.332;2024-02-21T03:04:51;8.50;99.90
17843;DHT22;69286;48.222;16.332;2024-02-21T03:07:19;8.40;99.90
17843;DHT22;69286;48.222;16.332;2024-02-21T03:09:46;8.50;99.90
17843;DHT22;69286;48.222;16.332;2024-02-21T03:12:13;8.50;99.90
17843;DHT22;69286;48.222;16.332;2024-02-21T03:14:44;8.50;99.90
17843;DHT22;69286;48.222;16.332;2024-02-21T03:17:13;8.40;99.90
17843;DHT22;69286;48.222;16.332;2024-02-21T03:19:40;8.40;99.90
17843;DHT22;69286;48.222;16.332;2024-02-21T03:22:06;8.50;99.90
17843;DHT22;69286;48.222;16.332;2024-02-21T03:24:34;8.50;99.90
17843;DHT22;69286;48.222;16.332;2024-02-21T03:27:01;8.50;99.90
17843;DHT22;69286;48.222;16.332;2024-02-21T03:29:28;8.40;99.90
17843;DHT22;69286;48.222;16.332;2024-02-21T03:31:55;8.40;99.90
17843;DHT22;69286;48.222;16.332;2024-02-21T03:34:23;8.40;99.90
17843;DHT22;69286;48.222;16.332;2024-02-21T03:36:50;8.40;99.90
17843;DHT22;69286;48.222;16.332;2024-02-21T03:39:17;8.40;99.90
17843;DHT22;69286;48.222;16.332;2024-02-21T03:41:44;8.40;99.90
17843;DHT22;69286;48.222;16.332;2024-02-21T03:44:11;8.40;99.90
17843;DHT22;69286;48.222;16.332;2024-02-21T03:46:37;8.40;99.90
17843;DHT22;69286;48.222;16.332;2024-02-21T03:49:04;8.40;99.90
17843;DHT22;69286;48.222;16.332;2024-02-21T03:51:33;8.40;99.90
17843;DHT22;69286;48.222;16.332;2024-02-21T03:53:59;8.30;99.90
17843;DHT22;69286;48.222;16.332;2024-02-21T03:56:26;8.30;99.90
17843;DHT22;69286;48.222;16.332;2024-02-21T03:58:53;8.40;99.90
17843;DHT22;69286;48.222;16.332;2024-02-21T04:01:21;8.30;99.90
17843;DHT22;69286;48.222;16.332;2024-02-21T04:03:48;8.40;99.90
17843;DHT22;69286;48.222;16.332;2024-02-21T04:06:15;8.30;99.90
17843;DHT22;69286;48.222;16.332;2024-02-21T04:08:43;8.30;99.90
17843;DHT22;69286;48.222;16.332;2024-02-21T04:11:12;8.30;99.90
17843;DHT22;69286;48.222;16.332;2024-02-21T04:13:38;8.20;99.90
17843;DHT22;69286;48.222;16.332;2024-02-21T04:16:05;8.20;99.90
17843;DHT22;69286;48.222;16.332;2024-02-21T04:18:32;8.20;99.90
17843;DHT22;69286;48.222;16.332;2024-02-21T04:20:59;8.20;99.90
17843;DHT22;69286;48.222;16.332;2024-02-21T04:23:26;8.20;99.90
17843;DHT22;69286;48.222;16.332;2024-02-21T04:25:54;8.10;99.90
17843;DHT22;69286;48.222;16.332;2024-02-21T04:28:24;8.10;99.90
17843;DHT22;69286;48.222;16.332;2024-02-21T04:30:50;8.10;99.90
17843;DHT22;69286;48.222;16.332;2024-02-21T04:33:18;8.10;99.90
17843;DHT22;69286;48.222;16.332;2024-02-21T04:35:45;8.10;99.90
17843;DHT22;69286;48.222;16.332;2024-02-21T04:38:12;8.10;99.90
17843;DHT22;69286;48.222;16.332;2024-02-21T04:40:40;8.20;99.90
17843;DHT22;69286;48.222;16.332;2024-02-21T04:43:08;8.10;99.90
17843;DHT22;69286;48.222;16.332;2024-02-21T04:45:35;8.10;99.90
17843;DHT22;69286;48.222;16.332;2024-02-21T04:48:03;8.20;99.90
17843;DHT22;69286;48.222;16.332;2024-02-21T04:50:30;8.20;99.90
17843;DHT22;69286;48.222;16.332;2024-02-21T04:52:57;8.20;99.90
17843;DHT22;69286;48.222;16.332;2024-02-21T04:55:23;8.20;99.90
17843;DHT22;69286;48.222;16.332;2024-02-21T04:57:50;8.20;99.90
17843;DHT22;69286;48.222;16.332;2024-02-21T05:00:19;8.20;99.90
17843;DHT22;69286;48.222;16.332;2024-02-21T05:02:46;8.20;99.90
17843;DHT22;69286;48.222;16.332;2024-02-21T05:05:13;8.20;99.90
17843;DHT22;69286;48.222;16.332;2024-02-21T05:07:42;8.20;99.90
17843;DHT22;69286;48.222;16.332;2024-02-21T05:10:09;8.20;99.90
17843;DHT22;69286;48.222;16.332;2024-02-21T05:12:36;8.20;99.90
17843;DHT22;69286;48.222;16.332;2024-02-21T05:15:04;8.20;99.90
17843;DHT22;69286;48.222;16.332;2024-02-21T05:17:33;8.20;99.90
17843;DHT22;69286;48.222;16.332;2024-02-21T05:20:00;8.20;99.90
17843;DHT22;69286;48.222;16.332;2024-02-21T05:22:27;8.20;99.90
17843;DHT22;69286;48.222;16.332;2024-02-21T05:24:54;8.20;99.90
17843;DHT22;69286;48.222;16.332;2024-02-21T05:27:20;8.20;99.90
17843;DHT22;69286;48.222;16.332;2024-02-21T05:29:47;8.20;99.90
17843;DHT22;69286;48.222;16.332;2024-02-21T05:32:14;8.20;99.90
17843;DHT22;69286;48.222;16.332;2024-02-21T05:34:43;8.30;99.90
17843;DHT22;69286;48.222;16.332;2024-02-21T05:37:10;8.30;99.90
17843;DHT22;69286;48.222;16.332;2024-02-21T05:39:37;8.20;99.90
17843;DHT22;69286;48.222;16.332;2024-02-21T05:42:04;8.30;99.90
17843;DHT22;69286;48.222;16.332;2024-02-21T05:44:31;8.30;99.90
17843;DHT22;69286;48.222;16.332;2024-02-21T05:46:58;8.30;99.90
17843;DHT22;69286;48.222;16.332;2024-02-21T05:49:25;8.30;99.90
17843;DHT22;69286;48.222;16.332;2024-02-21T05:51:53;8.30;99.90
17843;DHT22;69286;48.222;16.332;2024-02-21T05:54:20;8.30;99.90
17843;DHT22;69286;48.222;16.332;2024-02-21T05:56:47;8.30;99.90
17843;DHT22;69286;48.222;16.332;2024-02-21T05:59:14;8.30;99.90
17843;DHT22;69286;48.222;16.332;2024-02-21T06:01:41;8.30;99.90
17843;DHT22;69286;48.222;16.332;2024-02-21T06:04:08;8.30;99.90
17843;DHT22;69286;48.222;16.332;2024-02-21T06:06:35;8.30;99.90
17843;DHT22;69286;48.222;16.332;2024-02-21T06:09:03;8.40;99.90
17843;DHT22;69286;48.222;16.332;2024-02-21T06:11:30;8.40;99.90
17843;DHT22;69286;48.222;16.332;2024-02-21T06:13:57;8.40;99.90
17843;DHT22;69286;48.222;16.332;2024-02-21T06:16:24;8.40;99.90
17843;DHT22;69286;48.222;16.332;2024-02-21T06:18:51;8.40;99.90
17843;DHT22;69286;48.222;16.332;2024-02-21T06:21:18;8.40;99.90
17843;DHT22;69286;48.222;16.332;2024-02-21T06:23:45;8.40;99.90
17843;DHT22;69286;48.222;16.332;2024-02-21T06:26:13;8.50;99.90
17843;DHT22;69286;48.222;16.332;2024-02-21T06:28:40;8.50;99.90
17843;DHT22;69286;48.222;16.332;2024-02-21T06:31:08;8.40;99.90
17843;DHT22;69286;48.222;16.332;2024-02-21T06:33:35;8.50;99.90
17843;DHT22;69286;48.222;16.332;2024-02-21T06:36:02;8.40;99.90
17843;DHT22;69286;48.222;16.332;2024-02-21T06:38:29;8.50;99.90
17843;DHT22;69286;48.222;16.332;2024-02-21T06:40:56;8.40;99.90
17843;DHT22;69286;48.222;16.332;2024-02-21T06:43:25;8.50;99.90
17843;DHT22;69286;48.222;16.332;2024-02-21T06:45:52;8.60;99.90
17843;DHT22;69286;48.222;16.332;2024-02-21T06:48:20;8.60;99.90
17843;DHT22;69286;48.222;16.332;2024-02-21T06:50:47;8.60;99.90
17843;DHT22;69286;48.222;16.332;2024-02-21T06:53:14;8.60;99.90
17843;DHT22;69286;48.222;16.332;2024-02-21T06:55:41;8.60;99.90
17843;DHT22;69286;48.222;16.332;2024-02-21T06:58:08;8.60;99.90
17843;DHT22;69286;48.222;16.332;2024-02-21T07:00:39;8.60;99.90
17843;DHT22;69286;48.222;16.332;2024-02-21T07:03:06;8.70;99.90
17843;DHT22;69286;48.222;16.332;2024-02-21T07:05:33;8.70;99.90
17843;DHT22;69286;48.222;16.332;2024-02-21T07:08:01;8.80;99.90
17843;DHT22;69286;48.222;16.332;2024-02-21T07:10:29;8.80;99.90
17843;DHT22;69286;48.222;16.332;2024-02-21T07:12:56;8.80;99.90
17843;DHT22;69286;48.222;16.332;2024-02-21T07:15:23;8.80;99.90
17843;DHT22;69286;48.222;16.332;2024-02-21T07:17:53;8.80;99.90
17843;DHT22;69286;48.222;16.332;2024-02-21T07:20:20;8.80;99.90
17843;DHT22;69286;48.222;16.332;2024-02-21T07:22:47;8.80;99.90
17843;DHT22;69286;48.222;16.332;2024-02-21T07:25:14;8.80;99.90
17843;DHT22;69286;48.222;16.332;2024-02-21T07:27:42;8.80;99.90
17843;DHT22;69286;48.222;16.332;2024-02-21T07:30:10;8.80;99.90
17843;DHT22;69286;48.222;16.332;2024-02-21T07:32:37;8.90;99.90
17843;DHT22;69286;48.222;16.332;2024-02-21T07:35:06;8.90;99.90
17843;DHT22;69286;48.222;16.332;2024-02-21T07:37:36;9.00;99.90
17843;DHT22;69286;48.222;16.332;2024-02-21T07:40:04;9.20;99.90
17843;DHT22;69286;48.222;16.332;2024-02-21T07:42:31;9.30;99.80
17843;DHT22;69286;48.222;16.332;2024-02-21T07:44:58;9.40;99.40
17843;DHT22;69286;48.222;16.332;2024-02-21T07:47:25;9.50;99.50
17843;DHT22;69286;48.222;16.332;2024-02-21T07:49:52;9.60;99.00
17843;DHT22;69286;48.222;16.332;2024-02-21T07:52:21;9.70;98.90
17843;DHT22;69286;48.222;16.332;2024-02-21T07:54:48;9.80;98.40
17843;DHT22;69286;48.222;16.332;2024-02-21T07:57:15;9.90;98.40
17843;DHT22;69286;48.222;16.332;2024-02-21T07:59:42;10.00;98.50
17843;DHT22;69286;48.222;16.332;2024-02-21T08:02:08;10.20;98.10
17843;DHT22;69286;48.222;16.332;2024-02-21T08:04:36;10.50;97.60
17843;DHT22;69286;48.222;16.332;2024-02-21T08:07:03;10.70;97.20
17843;DHT22;69286;48.222;16.332;2024-02-21T08:09:32;10.90;96.70
17843;DHT22;69286;48.222;16.332;2024-02-21T08:12:00;11.00;96.10
17843;DHT22;69286;48.222;16.332;2024-02-21T08:14:27;11.10;96.40
17843;DHT22;69286;48.222;16.332;2024-02-21T08:16:54;11.10;95.90
17843;DHT22;69286;48.222;16.332;2024-02-21T08:19:21;11.40;96.00
17843;DHT22;69286;48.222;16.332;2024-02-21T08:21:49;11.90;95.00
17843;DHT22;69286;48.222;16.332;2024-02-21T08:24:16;12.30;94.00
17843;DHT22;69286;48.222;16.332;2024-02-21T08:26:44;12.60;93.30
17843;DHT22;69286;48.222;16.332;2024-02-21T08:29:12;12.90;92.70
17843;DHT22;69286;48.222;16.332;2024-02-21T08:31:39;13.00;91.70
17843;DHT22;69286;48.222;16.332;2024-02-21T08:34:05;12.90;91.70
17843;DHT22;69286;48.222;16.332;2024-02-21T08:36:34;13.00;91.40
17843;DHT22;69286;48.222;16.332;2024-02-21T08:39:04;13.00;91.40
17843;DHT22;69286;48.222;16.332;2024-02-21T08:41:31;13.20;91.40
17843;DHT22;69286;48.222;16.332;2024-02-21T08:44:00;13.20;90.90
17843;DHT22;69286;48.222;16.332;2024-02-21T08:46:27;13.20;90.70
17843;DHT22;69286;48.222;16.332;2024-02-21T08:48:55;13.10;90.80
17843;DHT22;69286;48.222;16.332;2024-02-21T08:51:22;13.10;91.00
17843;DHT22;69286;48.222;16.332;2024-02-21T08:53:49;13.10;90.60
17843;DHT22;69286;48.222;16.332;2024-02-21T08:56:17;13.10;90.70
17843;DHT22;69286;48.222;16.332;2024-02-21T08:58:44;13.10;90.50
17843;DHT22;69286;48.222;16.332;2024-02-21T09:01:13;13.20;90.80
17843;DHT22;69286;48.222;16.332;2024-02-21T09:03:40;13.30;90.30
17843;DHT22;69286;48.222;16.332;2024-02-21T09:06:09;13.50;90.40
17843;DHT22;69286;48.222;16.332;2024-02-21T09:08:36;13.90;89.40
17843;DHT22;69286;48.222;16.332;2024-02-21T09:11:06;14.30;88.40
17843;DHT22;69286;48.222;16.332;2024-02-21T09:13:33;14.70;87.90
17843;DHT22;69286;48.222;16.332;2024-02-21T09:16:00;15.10;86.40
17843;DHT22;69286;48.222;16.332;2024-02-21T09:18:28;15.30;84.80
17843;DHT22;69286;48.222;16.332;2024-02-21T09:20:56;15.30;83.90
17843;DHT22;69286;48.222;16.332;2024-02-21T09:23:24;15.30;84.10
17843;DHT22;69286;48.222;16.332;2024-02-21T09:25:51;15.30;83.80
17843;DHT22;69286;48.222;16.332;2024-02-21T09:28:18;15.20;83.90
17843;DHT22;69286;48.222;16.332;2024-02-21T09:30:46;15.10;83.70
17843;DHT22;69286;48.222;16.332;2024-02-21T09:33:12;14.90;84.20
17843;DHT22;69286;48.222;16.332;2024-02-21T09:35:44;14.70;84.70
17843;DHT22;69286;48.222;16.332;2024-02-21T09:38:11;14.40;84.80
17843;DHT22;69286;48.222;16.332;2024-02-21T09:40:38;14.20;85.30
17843;DHT22;69286;48.222;16.332;2024-02-21T09:43:07;14.20;85.60
17843;DHT22;69286;48.222;16.332;2024-02-21T09:45:35;14.30;85.40
17843;DHT22;69286;48.222;16.332;2024-02-21T09:48:23;14.50;84.60
17843;DHT22;69286;48.222;16.332;2024-02-21T09:50:55;14.70;84.30
17843;DHT22;69286;48.222;16.332;2024-02-21T09:53:24;15.10;83.90
17843;DHT22;69286;48.222;16.332;2024-02-21T09:55:52;15.50;82.60
17843;DHT22;69286;48.222;16.332;2024-02-21T09:58:19;15.80;80.90
17843;DHT22;69286;48.222;16.332;2024-02-21T10:00:47;15.90;80.70
17843;DHT22;69286;48.222;16.332;2024-02-21T10:03:13;16.10;80.30
17843;DHT22;69286;48.222;16.332;2024-02-21T10:05:47;16.00;80.00
17843;DHT22;69286;48.222;16.332;2024-02-21T10:08:17;15.80;79.40
17843;DHT22;69286;48.222;16.332;2024-02-21T10:10:46;15.80;80.00
17843;DHT22;69286;48.222;16.332;2024-02-21T10:13:24;15.80;80.40
17843;DHT22;69286;48.222;16.332;2024-02-21T10:16:03;16.00;79.70
17843;DHT22;69286;48.222;16.332;2024-02-21T10:18:31;16.00;79.50
17843;DHT22;69286;48.222;16.332;2024-02-21T10:21:04;15.80;80.20
17843;DHT22;69286;48.222;16.332;2024-02-21T10:23:46;15.50;80.60
17843;DHT22;69286;48.222;16.332;2024-02-21T10:26:14;15.50;81.00
17843;DHT22;69286;48.222;16.332;2024-02-21T10:28:41;15.60;81.70
17843;DHT22;69286;48.222;16.332;2024-02-21T10:31:11;15.50;81.70
17843;DHT22;69286;48.222;16.332;2024-02-21T10:33:38;15.60;81.10
17843;DHT22;69286;48.222;16.332;2024-02-21T10:36:09;15.70;80.90
17843;DHT22;69286;48.222;16.332;2024-02-21T10:38:37;15.70;81.40
17843;DHT22;69286;48.222;16.332;2024-02-21T10:41:06;15.70;80.70
17843;DHT22;69286;48.222;16.332;2024-02-21T10:43:39;15.50;80.40
17843;DHT22;69286;48.222;16.332;2024-02-21T10:46:07;15.40;81.10
17843;DHT22;69286;48.222;16.332;2024-02-21T10:48:42;15.50;81.60
17843;DHT22;69286;48.222;16.332;2024-02-21T10:51:15;15.60;81.30
17843;DHT22;69286;48.222;16.332;2024-02-21T10:53:47;15.70;81.20
17843;DHT22;69286;48.222;16.332;2024-02-21T10:56:22;15.70;80.70
17843;DHT22;69286;48.222;16.332;2024-02-21T10:58:50;15.80;80.50
17843;DHT22;69286;48.222;16.332;2024-02-21T11:01:19;15.60;80.20
17843;DHT22;69286;48.222;16.332;2024-02-21T11:03:51;15.50;80.60
17843;DHT22;69286;48.222;16.332;2024-02-21T11:06:20;15.30;81.10
17843;DHT22;69286;48.222;16.332;2024-02-21T11:08:58;15.20;81.70
17843;DHT22;69286;48.222;16.332;2024-02-21T11:11:27;15.00;82.00
17843;DHT22;69286;48.222;16.332;2024-02-21T11:14:05;14.90;82.80
17843;DHT22;69286;48.222;16.332;2024-02-21T11:16:36;14.70;82.80
17843;DHT22;69286;48.222;16.332;2024-02-21T11:19:05;14.70;83.60
17843;DHT22;69286;48.222;16.332;2024-02-21T11:21:36;14.50;83.70
17843;DHT22;69286;48.222;16.332;2024-02-21T11:24:03;14.20;83.40
17843;DHT22;69286;48.222;16.332;2024-02-21T11:26:32;14.10;84.10
17843;DHT22;69286;48.222;16.332;2024-02-21T11:29:00;13.90;84.20
17843;DHT22;69286;48.222;16.332;2024-02-21T11:31:38;13.80;84.50
17843;DHT22;69286;48.222;16.332;2024-02-21T11:34:08;13.70;84.50
17843;DHT22;69286;48.222;16.332;2024-02-21T11:36:35;13.70;85.30
17843;DHT22;69286;48.222;16.332;2024-02-21T11:39:05;13.70;85.30
17843;DHT22;69286;48.222;16.332;2024-02-21T11:41:34;13.70;85.60
17843;DHT22;69286;48.222;16.332;2024-02-21T11:44:01;13.70;85.50
17843;DHT22;69286;48.222;16.332;2024-02-21T11:46:28;13.80;85.10
17843;DHT22;69286;48.222;16.332;2024-02-21T11:48:55;13.80;85.10
17843;DHT22;69286;48.222;16.332;2024-02-21T11:51:26;13.80;85.20
17843;DHT22;69286;48.222;16.332;2024-02-21T11:53:53;13.90;85.40
17843;DHT22;69286;48.222;16.332;2024-02-21T11:56:20;14.00;85.90
17843;DHT22;69286;48.222;16.332;2024-02-21T11:58:51;14.20;84.40
17843;DHT22;69286;48.222;16.332;2024-02-21T12:01:18;14.30;83.30
17843;DHT22;69286;48.222;16.332;2024-02-21T12:03:45;14.30;83.50
17843;DHT22;69286;48.222;16.332;2024-02-21T12:06:16;14.40;83.60
17843;DHT22;69286;48.222;16.332;2024-02-21T12:08:47;14.40;83.10
17843;DHT22;69286;48.222;16.332;2024-02-21T12:11:20;14.40;83.00
17843;DHT22;69286;48.222;16.332;2024-02-21T12:14:00;14.40;82.80
17843;DHT22;69286;48.222;16.332;2024-02-21T12:16:29;14.40;82.80
17843;DHT22;69286;48.222;16.332;2024-02-21T12:18:57;14.40;82.60
17843;DHT22;69286;48.222;16.332;2024-02-21T12:21:24;14.30;82.00
17843;DHT22;69286;48.222;16.332;2024-02-21T12:23:54;14.20;82.00
17843;DHT22;69286;48.222;16.332;2024-02-21T12:26:21;14.10;82.60
17843;DHT22;69286;48.222;16.332;2024-02-21T12:28:48;14.00;82.00
17843;DHT22;69286;48.222;16.332;2024-02-21T12:31:17;14.00;82.00
17843;DHT22;69286;48.222;16.332;2024-02-21T12:33:44;13.90;81.70
17843;DHT22;69286;48.222;16.332;2024-02-21T12:36:11;13.80;81.90
17843;DHT22;69286;48.222;16.332;2024-02-21T12:38:38;13.80;81.80
17843;DHT22;69286;48.222;16.332;2024-02-21T12:41:05;13.70;82.20
17843;DHT22;69286;48.222;16.332;2024-02-21T12:43:33;13.70;82.50
17843;DHT22;69286;48.222;16.332;2024-02-21T12:46:01;13.70;82.00
17843;DHT22;69286;48.222;16.332;2024-02-21T12:48:29;13.70;82.20
17843;DHT22;69286;48.222;16.332;2024-02-21T12:50:56;13.70;82.00
17843;DHT22;69286;48.222;16.332;2024-02-21T12:53:24;13.70;81.50
17843;DHT22;69286;48.222;16.332;2024-02-21T12:55:51;13.70;81.40
17843;DHT22;69286;48.222;16.332;2024-02-21T12:58:18;13.70;81.70
17843;DHT22;69286;48.222;16.332;2024-02-21T13:00:47;13.70;81.40
17843;DHT22;69286;48.222;16.332;2024-02-21T13:03:14;13.80;80.60
17843;DHT22;69286;48.222;16.332;2024-02-21T13:05:42;13.80;80.30
17843;DHT22;69286;48.222;16.332;2024-02-21T13:08:09;13.80;81.50
17843;DHT22;69286;48.222;16.332;2024-02-21T13:10:37;13.80;81.10
17843;DHT22;69286;48.222;16.332;2024-02-21T13:13:04;13.80;80.30
17843;DHT22;69286;48.222;16.332;2024-02-21T13:15:32;13.80;80.40
17843;DHT22;69286;48.222;16.332;2024-02-21T13:17:59;13.80;80.80
17843;DHT22;69286;48.222;16.332;2024-02-21T13:20:26;13.80;80.80
17843;DHT22;69286;48.222;16.332;2024-02-21T13:22:56;13.90;80.80
17843;DHT22;69286;48.222;16.332;2024-02-21T13:25:23;14.00;81.70
17843;DHT22;69286;48.222;16.332;2024-02-21T13:27:50;14.10;81.80
17843;DHT22;69286;48.222;16.332;2024-02-21T13:30:17;14.20;81.10
17843;DHT22;69286;48.222;16.332;2024-02-21T13:32:44;14.30;80.10
17843;DHT22;69286;48.222;16.332;2024-02-21T13:35:13;14.40;80.10
17843;DHT22;69286;48.222;16.332;2024-02-21T13:37:41;14.50;79.70
17843;DHT22;69286;48.222;16.332;2024-02-21T13:40:10;14.60;79.00
17843;DHT22;69286;48.222;16.332;2024-02-21T13:42:37;14.70;78.50
17843;DHT22;69286;48.222;16.332;2024-02-21T13:45:05;14.70;78.70
17843;DHT22;69286;48.222;16.332;2024-02-21T13:47:34;14.70;77.60
17843;DHT22;69286;48.222;16.332;2024-02-21T13:50:02;14.80;78.20
17843;DHT22;69286;48.222;16.332;2024-02-21T13:52:30;14.80;78.30
17843;DHT22;69286;48.222;16.332;2024-02-21T13:54:57;14.80;77.70
17843;DHT22;69286;48.222;16.332;2024-02-21T13:57:25;14.90;78.00
17843;DHT22;69286;48.222;16.332;2024-02-21T13:59:52;14.80;78.40
17843;DHT22;69286;48.222;16.332;2024-02-21T14:02:19;14.80;78.30
17843;DHT22;69286;48.222;16.332;2024-02-21T14:04:47;14.80;77.30
17843;DHT22;69286;48.222;16.332;2024-02-21T14:07:14;14.60;76.90
17843;DHT22;69286;48.222;16.332;2024-02-21T14:09:41;14.60;76.80
17843;DHT22;69286;48.222;16.332;2024-02-21T14:12:08;14.60;76.90
17843;DHT22;69286;48.222;16.332;2024-02-21T14:14:37;14.50;77.00
17843;DHT22;69286;48.222;16.332;2024-02-21T14:17:04;14.50;76.60
17843;DHT22;69286;48.222;16.332;2024-02-21T14:19:31;14.50;77.60
17843;DHT22;69286;48.222;16.332;2024-02-21T14:21:58;14.50;77.30
17843;DHT22;69286;48.222;16.332;2024-02-21T14:24:25;14.50;76.40
17843;DHT22;69286;48.222;16.332;2024-02-21T14:26:53;14.40;76.40
17843;DHT22;69286;48.222;16.332;2024-02-21T14:29:20;14.50;76.80
17843;DHT22;69286;48.222;16.332;2024-02-21T14:31:49;14.50;76.90
17843;DHT22;69286;48.222;16.332;2024-02-21T14:34:16;14.50;76.80
17843;DHT22;69286;48.222;16.332;2024-02-21T14:36:42;14.50;77.10
17843;DHT22;69286;48.222;16.332;2024-02-21T14:39:09;14.50;76.70
17843;DHT22;69286;48.222;16.332;2024-02-21T14:41:36;14.50;76.70
17843;DHT22;69286;48.222;16.332;2024-02-21T14:44:05;14.50;77.00
17843;DHT22;69286;48.222;16.332;2024-02-21T14:46:36;14.50;76.80
17843;DHT22;69286;48.222;16.332;2024-02-21T14:49:05;14.50;76.90
17843;DHT22;69286;48.222;16.332;2024-02-21T14:51:32;14.50;76.40
17843;DHT22;69286;48.222;16.332;2024-02-21T14:53:59;14.40;76.30
17843;DHT22;69286;48.222;16.332;2024-02-21T14:56:26;14.40;76.00
17843;DHT22;69286;48.222;16.332;2024-02-21T14:58:53;14.30;76.40
17843;DHT22;69286;48.222;16.332;2024-02-21T15:01:20;14.30;76.40
17843;DHT22;69286;48.222;16.332;2024-02-21T15:03:47;14.20;76.90
17843;DHT22;69286;48.222;16.332;2024-02-21T15:06:16;14.10;76.60
17843;DHT22;69286;48.222;16.332;2024-02-21T15:08:43;14.10;76.90
17843;DHT22;69286;48.222;16.332;2024-02-21T15:11:10;14.10;77.70
17843;DHT22;69286;48.222;16.332;2024-02-21T15:13:36;14.10;77.40
17843;DHT22;69286;48.222;16.332;2024-02-21T15:16:04;14.00;77.50
17843;DHT22;69286;48.222;16.332;2024-02-21T15:18:31;14.00;77.30
17843;DHT22;69286;48.222;16.332;2024-02-21T15:20:59;14.00;77.80
17843;DHT22;69286;48.222;16.332;2024-02-21T15:23:28;14.00;77.90
17843;DHT22;69286;48.222;16.332;2024-02-21T15:25:55;14.00;78.10
17843;DHT22;69286;48.222;16.332;2024-02-21T15:28:22;14.00;78.40